Bursledon, United Kingdom
Current Conditions -  °F | °C
As of 8:50 PM on Saturday 24 Jan 2015 (Local Time) from EGHI Reporting Station
Clear Clear  
Wind Chill: 32°   Ceiling: Unl
Heat Index: 32°   Visibility: 6mi
Dew Point: 28°   Wind: 1mph
Humidity: 87%   Direction: NA
Pressure: 30.48"   Gusts: NA
Location:  50.89°N, 1.32°W
Report Text: EGHI 242050Z VRB01KT CAVOK 00/M02 Q1032
Loading
Personal Weather Stations






























Interactive Weather Map New forecast layout! Learn more

10-Day Weather Forecast

Advertisements
Track Severe Weather on mobile